createdAt,value
2019-03-19T00:00:58.433Z,10.30
2019-03-19T00:03:28.694Z,10.53
2019-03-19T00:05:58.172Z,9.40
2019-03-19T00:08:27.695Z,9.90
2019-03-19T00:10:56.881Z,10.60
2019-03-19T00:13:26.308Z,10.13
2019-03-19T00:15:55.781Z,10.13
2019-03-19T00:18:24.969Z,10.23
2019-03-19T00:20:56.510Z,9.57
2019-03-19T00:23:25.962Z,9.00
2019-03-19T00:25:57.126Z,9.50
2019-03-19T00:28:26.601Z,10.70
2019-03-19T00:30:55.757Z,9.80
2019-03-19T00:33:24.954Z,9.27
2019-03-19T00:36:00.038Z,9.10
2019-03-19T00:38:29.606Z,9.63
2019-03-19T00:40:59.902Z,8.67
2019-03-19T00:43:31.962Z,9.93
2019-03-19T00:46:02.191Z,9.20
2019-03-19T00:48:31.691Z,9.80
2019-03-19T00:51:01.152Z,9.37
2019-03-19T00:53:36.831Z,9.40
2019-03-19T00:56:06.358Z,9.27
2019-03-19T00:58:35.833Z,8.30
2019-03-19T01:01:05.775Z,9.93
2019-03-19T01:03:35.480Z,9.20
2019-03-19T01:06:04.833Z,9.07
2019-03-19T01:08:34.383Z,8.73
2019-03-19T01:11:04.689Z,8.43
2019-03-19T01:13:34.909Z,9.87
2019-03-19T01:16:04.113Z,9.13
2019-03-19T01:18:33.486Z,8.50
2019-03-19T01:21:02.642Z,9.20
2019-03-19T01:23:32.124Z,8.87
2019-03-19T01:26:01.601Z,9.27
2019-03-19T01:28:31.103Z,8.60
2019-03-19T01:31:00.317Z,7.97
2019-03-19T01:33:29.518Z,8.67
2019-03-19T01:35:58.838Z,8.80
2019-03-19T01:38:28.331Z,8.50
2019-03-19T01:40:57.844Z,8.87
2019-03-19T01:43:27.471Z,8.37
2019-03-19T01:45:56.855Z,8.10
2019-03-19T01:48:26.400Z,8.53
2019-03-19T01:50:55.822Z,8.80
2019-03-19T01:53:25.007Z,8.83
2019-03-19T01:56:04.456Z,8.33
2019-03-19T01:58:25.566Z,9.07
2019-03-19T02:00:55.967Z,9.23
2019-03-19T02:03:25.439Z,8.53
2019-03-19T02:05:54.902Z,8.87
2019-03-19T02:08:24.445Z,8.63
2019-03-19T02:10:53.938Z,7.43
2019-03-19T02:13:23.435Z,7.87
2019-03-19T02:15:52.979Z,8.20
2019-03-19T02:18:22.452Z,8.83
2019-03-19T02:20:52.765Z,7.83
2019-03-19T02:23:22.305Z,7.80
2019-03-19T02:25:51.838Z,7.37
2019-03-19T02:28:21.283Z,7.53
2019-03-19T02:30:50.648Z,7.97
2019-03-19T02:33:19.880Z,8.07
2019-03-19T02:35:49.675Z,8.43
2019-03-19T02:38:18.949Z,8.07
2019-03-19T02:40:48.756Z,7.13
2019-03-19T02:43:17.964Z,8.00
2019-03-19T02:45:47.577Z,7.43
2019-03-19T02:48:17.329Z,7.10
2019-03-19T02:50:46.490Z,7.43
2019-03-19T02:53:15.972Z,7.77
2019-03-19T02:55:45.459Z,6.60
2019-03-19T02:58:15.083Z,7.33
2019-03-19T03:00:46.903Z,7.27
2019-03-19T03:03:17.228Z,6.70
2019-03-19T03:05:47.543Z,7.57
2019-03-19T03:08:16.735Z,7.03
2019-03-19T03:10:46.299Z,7.73
2019-03-19T03:13:15.665Z,6.93
2019-03-19T03:15:46.008Z,7.67
2019-03-19T03:18:18.038Z,7.30
2019-03-19T03:20:47.471Z,6.93
2019-03-19T03:23:16.983Z,7.57
2019-03-19T03:25:46.456Z,7.93
2019-03-19T03:28:15.685Z,7.07
2019-03-19T03:30:45.185Z,7.03
2019-03-19T03:33:14.576Z,7.73
2019-03-19T03:35:43.737Z,7.40
2019-03-19T03:38:13.496Z,7.33
2019-03-19T03:40:42.664Z,7.57
2019-03-19T03:43:12.577Z,6.93
2019-03-19T03:45:41.762Z,7.30
2019-03-19T03:48:11.257Z,6.90
2019-03-19T03:50:40.690Z,6.80
2019-03-19T03:53:09.888Z,6.67
2019-03-19T03:55:39.307Z,6.87
2019-03-19T03:58:08.787Z,7.10
2019-03-19T04:00:37.999Z,6.90
2019-03-19T04:03:07.401Z,8.00
2019-03-19T04:05:36.565Z,7.27
2019-03-19T04:08:06.098Z,6.63
2019-03-19T04:10:35.643Z,6.87
2019-03-19T04:13:05.364Z,6.97
2019-03-19T04:15:34.676Z,6.33
2019-03-19T04:18:04.157Z,6.53
2019-03-19T04:20:33.522Z,6.80
2019-03-19T04:23:02.740Z,6.00
2019-03-19T04:25:32.134Z,6.17
2019-03-19T04:28:01.639Z,6.57
2019-03-19T04:30:31.158Z,6.77
2019-03-19T04:33:00.646Z,6.83
2019-03-19T04:35:29.823Z,6.93
2019-03-19T04:37:59.370Z,7.40
2019-03-19T04:40:29.567Z,6.43
2019-03-19T04:42:58.770Z,6.43
2019-03-19T04:45:28.207Z,6.30
2019-03-19T04:47:57.751Z,6.70
2019-03-19T04:50:27.187Z,6.40
2019-03-19T04:52:56.362Z,6.07
2019-03-19T04:55:25.827Z,6.23
2019-03-19T04:57:55.298Z,6.43
2019-03-19T05:00:24.982Z,6.53
2019-03-19T05:02:54.301Z,6.50
2019-03-19T05:05:23.455Z,6.17
2019-03-19T05:07:52.957Z,6.57
2019-03-19T05:10:22.542Z,7.13
2019-03-19T05:12:51.914Z,7.53
2019-03-19T05:15:21.102Z,6.47
2019-03-19T05:17:50.778Z,6.73
2019-03-19T05:20:20.023Z,7.40
2019-03-19T05:22:50.745Z,7.27
2019-03-19T05:25:19.906Z,7.33
2019-03-19T05:27:49.524Z,6.97
2019-03-19T05:30:20.607Z,7.27
2019-03-19T05:32:50.581Z,6.93
2019-03-19T05:35:20.075Z,6.80
2019-03-19T05:37:49.352Z,7.07
2019-03-19T05:40:18.518Z,7.80
2019-03-19T05:42:47.678Z,7.60
2019-03-19T05:45:17.818Z,7.30
2019-03-19T05:47:47.053Z,6.93
2019-03-19T05:50:18.746Z,6.63
2019-03-19T05:52:48.764Z,7.03
2019-03-19T05:55:18.430Z,7.63
2019-03-19T05:57:50.377Z,6.87
2019-03-19T06:00:22.440Z,6.70
2019-03-19T06:02:52.016Z,6.57
2019-03-19T06:05:21.612Z,5.97
2019-03-19T06:07:52.149Z,6.50
2019-03-19T06:10:21.594Z,6.67
2019-03-19T06:12:50.770Z,6.90
2019-03-19T06:15:20.315Z,7.73
2019-03-19T06:17:51.753Z,6.43
2019-03-19T06:20:21.523Z,6.90
2019-03-19T06:22:50.848Z,7.00
2019-03-19T06:25:20.352Z,6.63
2019-03-19T06:27:59.836Z,6.73
2019-03-19T06:30:25.388Z,6.73
2019-03-19T06:32:54.942Z,7.03
2019-03-19T06:35:24.418Z,6.23
2019-03-19T06:37:53.616Z,6.20
2019-03-19T06:40:23.287Z,6.70
2019-03-19T06:42:52.530Z,6.27
2019-03-19T06:45:23.226Z,6.73
2019-03-19T06:47:53.329Z,6.37
2019-03-19T06:50:22.958Z,6.20
2019-03-19T06:52:52.264Z,7.23
2019-03-19T06:55:21.847Z,7.20
2019-03-19T06:57:51.813Z,6.20
2019-03-19T07:00:24.437Z,6.40
2019-03-19T07:02:53.979Z,6.70
2019-03-19T07:05:24.244Z,6.07
2019-03-19T07:07:53.592Z,7.50
2019-03-19T07:10:22.829Z,5.90
2019-03-19T07:12:51.990Z,6.80
2019-03-19T07:15:22.713Z,7.63
2019-03-19T07:17:52.439Z,7.43
2019-03-19T07:20:23.030Z,8.07
2019-03-19T07:22:52.454Z,8.33
2019-03-19T07:25:21.973Z,9.30
2019-03-19T07:27:52.295Z,8.23
2019-03-19T07:30:23.021Z,7.87
2019-03-19T07:32:52.480Z,8.20
2019-03-19T07:35:21.974Z,8.23
2019-03-19T07:37:51.519Z,8.10
2019-03-19T07:40:20.995Z,8.47
2019-03-19T07:42:50.800Z,9.07
2019-03-19T07:45:22.046Z,8.40
2019-03-19T07:47:51.729Z,9.10
2019-03-19T07:50:22.308Z,8.10
2019-03-19T07:52:52.216Z,8.17
2019-03-19T07:55:21.769Z,7.67
2019-03-19T07:57:52.194Z,7.50
2019-03-19T08:00:23.177Z,7.77
2019-03-19T08:03:15.340Z,6.53
2019-03-19T08:05:41.295Z,7.30
2019-03-19T08:08:14.635Z,5.93
2019-03-19T08:10:44.242Z,7.70
2019-03-19T08:13:13.685Z,6.50
2019-03-19T08:15:43.157Z,5.70
2019-03-19T08:18:15.586Z,6.33
2019-03-19T08:20:45.136Z,6.53
2019-03-19T08:23:14.538Z,6.13
2019-03-19T08:25:44.030Z,6.60
2019-03-19T08:28:13.223Z,6.50
2019-03-19T08:30:42.648Z,4.53
2019-03-19T08:33:12.151Z,4.60
2019-03-19T08:35:41.742Z,5.27
2019-03-19T08:38:11.159Z,4.43
2019-03-19T08:40:40.336Z,4.70
2019-03-19T08:43:09.810Z,5.40
2019-03-19T08:45:40.072Z,4.70
2019-03-19T08:48:10.676Z,5.27
2019-03-19T08:50:41.173Z,4.80
2019-03-19T08:53:10.788Z,5.90
2019-03-19T08:55:40.151Z,6.27
2019-03-19T08:58:09.822Z,5.57
2019-03-19T09:00:39.156Z,5.70
2019-03-19T09:03:11.541Z,6.03
2019-03-19T09:05:40.737Z,6.17
2019-03-19T09:08:10.956Z,6.97
2019-03-19T09:10:40.468Z,6.63
2019-03-19T09:13:10.165Z,6.40
2019-03-19T09:15:39.468Z,6.30
2019-03-19T09:18:08.626Z,6.30
2019-03-19T09:20:38.196Z,7.30
2019-03-19T09:23:07.434Z,6.20
2019-03-19T09:25:36.737Z,5.90
2019-03-19T09:28:06.343Z,6.87
2019-03-19T09:30:35.756Z,6.63
2019-03-19T09:33:05.327Z,6.77
2019-03-19T09:35:34.727Z,6.97
2019-03-19T09:38:04.262Z,6.20
2019-03-19T09:40:33.430Z,7.30
2019-03-19T09:43:02.889Z,6.57
2019-03-19T09:45:32.386Z,6.73
2019-03-19T09:48:01.822Z,7.43
2019-03-19T09:50:31.346Z,7.63
2019-03-19T09:53:00.839Z,7.33
2019-03-19T09:55:29.990Z,7.53
2019-03-19T09:57:59.537Z,7.13
2019-03-19T10:00:28.926Z,7.90
2019-03-19T10:02:58.448Z,7.80
2019-03-19T10:05:28.009Z,7.63
2019-03-19T10:07:57.437Z,7.73
2019-03-19T10:10:26.618Z,6.73
2019-03-19T10:12:56.878Z,10.60
2019-03-19T10:15:26.361Z,7.97
2019-03-19T10:17:55.517Z,8.73
2019-03-19T10:20:26.511Z,7.33
2019-03-19T10:22:55.736Z,7.83
2019-03-19T10:25:25.219Z,8.33
2019-03-19T10:27:54.419Z,8.10
2019-03-19T10:30:25.052Z,7.67
2019-03-19T10:32:56.591Z,7.10
2019-03-19T10:35:25.835Z,7.37
2019-03-19T10:37:55.185Z,7.33
2019-03-19T10:40:24.575Z,7.50
2019-03-19T10:42:53.825Z,8.07
2019-03-19T10:45:24.543Z,8.10
2019-03-19T10:47:53.708Z,6.70
2019-03-19T10:50:27.271Z,7.87
2019-03-19T10:52:56.829Z,7.57
2019-03-19T10:55:26.229Z,7.93
2019-03-19T10:57:55.524Z,7.77
2019-03-19T11:00:26.114Z,8.60
2019-03-19T11:02:55.589Z,7.60
2019-03-19T11:05:25.861Z,7.57
2019-03-19T11:07:55.706Z,9.47
2019-03-19T11:10:25.696Z,8.40
2019-03-19T11:12:55.279Z,8.20
2019-03-19T11:15:27.202Z,7.83
2019-03-19T11:17:57.523Z,8.10
2019-03-19T11:20:26.705Z,9.10
2019-03-19T11:22:56.105Z,8.40
2019-03-19T11:25:27.365Z,8.50
2019-03-19T11:27:56.890Z,9.50
2019-03-19T11:30:28.681Z,8.70
2019-03-19T11:32:58.304Z,8.90
2019-03-19T11:35:28.129Z,8.13
2019-03-19T11:37:58.070Z,8.87
2019-03-19T11:40:27.695Z,8.73
2019-03-19T11:42:56.900Z,7.83
2019-03-19T11:45:26.464Z,7.43
2019-03-19T11:47:55.781Z,6.77
2019-03-19T11:50:29.339Z,7.17
2019-03-19T11:52:58.857Z,8.07
2019-03-19T11:55:28.098Z,8.63
2019-03-19T11:57:57.865Z,9.57
2019-03-19T12:00:39.014Z,8.83
2019-03-19T12:03:15.151Z,8.60
2019-03-19T12:05:40.509Z,9.13
2019-03-19T12:08:09.661Z,9.10
2019-03-19T12:10:39.006Z,9.83
2019-03-19T12:13:08.203Z,10.73
2019-03-19T12:15:37.415Z,9.00
2019-03-19T12:18:06.837Z,8.17
2019-03-19T12:20:36.067Z,8.93
2019-03-19T12:23:05.797Z,9.70
2019-03-19T12:25:35.058Z,10.23
2019-03-19T12:28:04.958Z,9.70
2019-03-19T12:30:34.380Z,11.43
2019-03-19T12:33:03.697Z,10.67
2019-03-19T12:35:33.664Z,10.47
2019-03-19T12:38:02.956Z,11.13
2019-03-19T12:40:36.746Z,10.93
2019-03-19T12:43:03.142Z,11.20
2019-03-19T12:45:32.394Z,10.80
2019-03-19T12:48:02.710Z,10.70
2019-03-19T12:50:31.960Z,10.67
2019-03-19T12:53:01.255Z,11.23
2019-03-19T12:55:30.472Z,12.47
2019-03-19T12:58:01.276Z,11.60
2019-03-19T13:00:34.497Z,12.10
2019-03-19T13:03:01.466Z,11.40
2019-03-19T13:05:30.767Z,11.30
2019-03-19T13:07:59.918Z,9.93
2019-03-19T13:10:29.114Z,9.70
2019-03-19T13:12:58.280Z,9.57
2019-03-19T13:15:27.503Z,13.03
2019-03-19T13:17:56.769Z,9.10
2019-03-19T13:20:26.230Z,9.07
2019-03-19T13:22:55.739Z,8.90
2019-03-19T13:25:26.502Z,9.23
2019-03-19T13:27:56.038Z,8.93
2019-03-19T13:30:32.468Z,11.30
2019-03-19T13:33:01.948Z,9.47
2019-03-19T13:35:31.464Z,9.10
2019-03-19T13:38:01.023Z,10.50
2019-03-19T13:40:30.469Z,10.63
2019-03-19T13:43:00.072Z,10.00
2019-03-19T13:45:29.887Z,10.40
2019-03-19T13:47:59.115Z,10.17
2019-03-19T13:50:28.573Z,9.23
2019-03-19T13:52:57.996Z,10.23
2019-03-19T13:55:28.310Z,9.83
2019-03-19T13:57:57.704Z,9.60
2019-03-19T14:00:26.930Z,9.67
2019-03-19T14:02:59.018Z,10.93
2019-03-19T14:05:27.569Z,10.50
2019-03-19T14:07:57.078Z,10.17
2019-03-19T14:10:26.589Z,10.63
2019-03-19T14:12:56.109Z,10.50
2019-03-19T14:15:27.293Z,10.23
2019-03-19T14:17:57.212Z,9.47
2019-03-19T14:20:26.651Z,11.00
2019-03-19T14:22:56.219Z,10.17
2019-03-19T14:25:25.643Z,10.83
2019-03-19T14:27:55.189Z,9.60
2019-03-19T14:30:28.377Z,10.80
2019-03-19T14:32:57.846Z,10.83
2019-03-19T14:35:36.890Z,7.33
2019-03-19T14:37:58.101Z,7.70
2019-03-19T14:40:27.749Z,9.30
2019-03-19T14:42:59.127Z,13.03
2019-03-19T14:45:28.332Z,9.33
2019-03-19T14:47:57.745Z,9.50
2019-03-19T14:50:27.137Z,10.53
2019-03-19T14:52:57.899Z,11.57
2019-03-19T14:55:27.146Z,12.47
2019-03-19T14:57:56.311Z,12.73
2019-03-19T15:00:25.712Z,13.13
2019-03-19T15:02:55.191Z,15.03
2019-03-19T15:05:24.358Z,12.67
2019-03-19T15:07:53.829Z,14.60
2019-03-19T15:10:26.183Z,14.20
2019-03-19T15:12:55.376Z,13.67
2019-03-19T15:15:26.828Z,14.60
2019-03-19T15:17:56.374Z,12.73
2019-03-19T15:20:27.493Z,13.00
2019-03-19T15:22:59.038Z,14.83
2019-03-19T15:25:28.299Z,12.73
2019-03-19T15:27:57.642Z,12.80
2019-03-19T15:30:27.137Z,14.37
2019-03-19T15:32:56.666Z,14.87
2019-03-19T15:35:26.144Z,14.20
2019-03-19T15:37:55.645Z,13.57
2019-03-19T15:40:25.208Z,14.83
2019-03-19T15:42:55.468Z,13.10
2019-03-19T15:45:26.582Z,14.93
2019-03-19T15:47:55.925Z,13.70
2019-03-19T15:50:25.216Z,24.40
2019-03-19T15:52:55.620Z,16.73
2019-03-19T15:55:26.034Z,11.77
2019-03-19T15:57:55.367Z,10.10
2019-03-19T16:00:25.770Z,12.17
2019-03-19T16:02:56.029Z,11.73
2019-03-19T16:05:25.269Z,12.03
2019-03-19T16:07:54.982Z,11.23
2019-03-19T16:10:24.554Z,12.57
2019-03-19T16:12:54.065Z,13.37
2019-03-19T16:15:23.931Z,11.87
2019-03-19T16:17:54.854Z,11.73
2019-03-19T16:20:24.302Z,11.50
2019-03-19T16:22:53.787Z,10.27
2019-03-19T16:25:23.224Z,9.47
2019-03-19T16:27:52.723Z,10.87
2019-03-19T16:30:28.781Z,11.60
2019-03-19T16:32:59.098Z,13.50
2019-03-19T16:35:32.740Z,12.87
2019-03-19T16:38:05.620Z,12.97
2019-03-19T16:40:34.999Z,12.27
2019-03-19T16:43:04.237Z,12.20
2019-03-19T16:45:33.589Z,13.73
2019-03-19T16:48:03.107Z,13.07
2019-03-19T16:50:32.277Z,15.60
2019-03-19T16:53:01.743Z,14.57
2019-03-19T16:55:31.200Z,13.90
2019-03-19T16:58:01.529Z,14.47
2019-03-19T17:00:31.080Z,17.83
2019-03-19T17:03:00.547Z,20.93
2019-03-19T17:05:32.405Z,23.80
2019-03-19T17:08:09.366Z,28.63
2019-03-19T17:10:39.749Z,30.27
2019-03-19T17:13:10.871Z,30.07
2019-03-19T17:15:46.985Z,28.03
2019-03-19T17:18:16.418Z,20.53
2019-03-19T17:20:45.630Z,18.00
2019-03-19T17:23:15.857Z,18.07
2019-03-19T17:25:45.330Z,15.80
2019-03-19T17:28:22.160Z,15.77
2019-03-19T17:30:45.995Z,15.17
2019-03-19T17:33:15.506Z,15.87
2019-03-19T17:35:46.095Z,14.93
2019-03-19T17:38:21.642Z,14.93
2019-03-19T17:40:50.999Z,14.00
2019-03-19T17:43:20.508Z,15.50
2019-03-19T17:45:51.818Z,16.17
2019-03-19T17:48:21.130Z,15.57
2019-03-19T17:50:53.387Z,15.27
2019-03-19T17:53:23.902Z,15.50
2019-03-19T17:55:55.863Z,17.23
2019-03-19T17:58:29.562Z,16.67
2019-03-19T18:01:01.320Z,20.40
2019-03-19T18:03:30.850Z,18.83
2019-03-19T18:06:01.199Z,17.30
2019-03-19T18:08:34.379Z,17.83
2019-03-19T18:11:03.614Z,17.63
2019-03-19T18:13:33.099Z,19.00
2019-03-19T18:16:03.320Z,15.43
2019-03-19T18:18:32.902Z,16.00
2019-03-19T18:21:02.323Z,13.67
2019-03-19T18:23:31.974Z,14.23
2019-03-19T18:26:01.732Z,16.90
2019-03-19T18:28:30.963Z,19.57
2019-03-19T18:31:00.172Z,18.70
2019-03-19T18:33:29.461Z,18.47
2019-03-19T18:35:58.647Z,18.83
2019-03-19T18:38:28.059Z,17.63
2019-03-19T18:40:57.535Z,15.30
2019-03-19T18:43:26.755Z,15.33
2019-03-19T18:45:57.235Z,14.87
2019-03-19T18:48:26.619Z,15.20
2019-03-19T18:50:55.993Z,14.80
2019-03-19T18:53:25.539Z,14.30
2019-03-19T18:55:55.129Z,14.93
2019-03-19T18:58:25.319Z,14.73
2019-03-19T19:00:54.789Z,30.00
2019-03-19T19:03:25.262Z,27.70
2019-03-19T19:05:54.719Z,24.37
2019-03-19T19:08:25.018Z,26.90
2019-03-19T19:10:54.603Z,25.53
2019-03-19T19:13:26.041Z,22.60
2019-03-19T19:15:55.543Z,22.27
2019-03-19T19:18:25.049Z,24.07
2019-03-19T19:20:55.411Z,21.17
2019-03-19T19:23:24.854Z,19.47
2019-03-19T19:25:54.096Z,20.43
2019-03-19T19:28:23.756Z,20.70
2019-03-19T19:30:53.083Z,23.90
2019-03-19T19:33:22.529Z,21.63
2019-03-19T19:35:52.137Z,21.50
2019-03-19T19:38:21.468Z,22.97
2019-03-19T19:40:50.772Z,22.47
2019-03-19T19:43:20.365Z,23.67
2019-03-19T19:45:52.580Z,25.00
2019-03-19T19:48:21.942Z,23.70
2019-03-19T19:50:52.287Z,23.20
2019-03-19T19:53:21.456Z,26.27
2019-03-19T19:55:51.446Z,26.20
2019-03-19T19:58:20.800Z,25.37
2019-03-19T20:00:50.127Z,27.97
2019-03-19T20:03:19.404Z,29.93
2019-03-19T20:05:48.773Z,33.33
2019-03-19T20:08:18.011Z,35.47
2019-03-19T20:10:47.203Z,33.50
2019-03-19T20:13:16.601Z,30.27
2019-03-19T20:15:46.129Z,28.63
2019-03-19T20:18:15.624Z,27.93
2019-03-19T20:20:46.900Z,25.67
2019-03-19T20:23:16.155Z,25.07
2019-03-19T20:25:45.331Z,24.43
2019-03-19T20:28:14.518Z,24.47
2019-03-19T20:30:44.035Z,24.07
2019-03-19T20:33:24.203Z,23.00
2019-03-19T20:35:44.608Z,25.43
2019-03-19T20:38:13.777Z,23.33
2019-03-19T20:40:44.025Z,25.70
2019-03-19T20:43:13.188Z,25.37
2019-03-19T20:45:43.531Z,23.83
2019-03-19T20:48:12.978Z,23.33
2019-03-19T20:50:42.466Z,24.03
2019-03-19T20:53:11.717Z,24.63
2019-03-19T20:55:41.889Z,24.40
2019-03-19T20:58:11.398Z,25.53
2019-03-19T21:00:40.885Z,25.80
2019-03-19T21:03:10.403Z,25.70
2019-03-19T21:05:40.714Z,26.43
2019-03-19T21:08:09.972Z,25.90
2019-03-19T21:10:39.373Z,26.47
2019-03-19T21:13:10.865Z,24.50
2019-03-19T21:15:40.210Z,25.97
2019-03-19T21:18:09.581Z,26.00
2019-03-19T21:20:39.074Z,25.40
2019-03-19T21:23:08.495Z,23.80
2019-03-19T21:25:37.958Z,23.97
2019-03-19T21:28:13.978Z,24.77
2019-03-19T21:30:38.256Z,24.10
2019-03-19T21:33:07.779Z,21.97
2019-03-19T21:35:37.412Z,22.07
2019-03-19T21:38:06.908Z,23.07
2019-03-19T21:40:37.844Z,22.60
2019-03-19T21:43:07.089Z,22.13
2019-03-19T21:45:36.562Z,24.17
2019-03-19T21:48:06.138Z,23.47
2019-03-19T21:50:35.407Z,24.60
2019-03-19T21:53:04.700Z,27.70
2019-03-19T21:55:34.111Z,30.50
2019-03-19T21:58:03.343Z,31.23
2019-03-19T22:00:32.716Z,26.73
2019-03-19T22:03:02.263Z,26.43
2019-03-19T22:05:31.726Z,27.37
2019-03-19T22:08:00.905Z,27.50
2019-03-19T22:10:30.327Z,27.23
2019-03-19T22:12:59.833Z,27.90
2019-03-19T22:15:29.348Z,28.37
2019-03-19T22:17:58.912Z,29.40
2019-03-19T22:20:28.376Z,30.10
2019-03-19T22:22:57.863Z,28.37
2019-03-19T22:25:27.340Z,28.90
2019-03-19T22:27:56.520Z,28.80
2019-03-19T22:30:26.080Z,28.00
2019-03-19T22:32:55.482Z,30.10
2019-03-19T22:35:25.033Z,31.50
2019-03-19T22:37:54.601Z,31.40
2019-03-19T22:40:25.054Z,31.10
2019-03-19T22:42:54.310Z,30.50
2019-03-19T22:45:28.715Z,30.40
2019-03-19T22:47:59.116Z,29.83
2019-03-19T22:50:28.555Z,30.27
2019-03-19T22:52:58.881Z,30.80
2019-03-19T22:55:29.511Z,33.03
2019-03-19T22:57:59.112Z,30.30
2019-03-19T23:00:31.734Z,32.07
2019-03-19T23:03:01.097Z,32.20
2019-03-19T23:05:30.640Z,30.27
2019-03-19T23:08:00.057Z,30.40
2019-03-19T23:10:29.616Z,31.53
2019-03-19T23:12:59.286Z,31.63
2019-03-19T23:15:28.873Z,31.87
2019-03-19T23:17:58.608Z,30.47
2019-03-19T23:20:28.377Z,32.10
2019-03-19T23:22:57.856Z,31.33
2019-03-19T23:25:27.049Z,33.93
2019-03-19T23:27:56.464Z,31.77
2019-03-19T23:30:26.302Z,32.77
2019-03-19T23:32:55.627Z,33.03
2019-03-19T23:35:24.987Z,32.37
2019-03-19T23:37:59.073Z,32.90
2019-03-19T23:40:31.525Z,32.93
2019-03-19T23:43:00.968Z,33.00
2019-03-19T23:45:31.189Z,32.93
2019-03-19T23:48:00.714Z,32.67
2019-03-19T23:50:31.020Z,34.67
2019-03-19T23:53:00.204Z,35.23
2019-03-19T23:55:29.672Z,33.13
2019-03-19T23:57:59.124Z,31.73
